This is the latest recevied weather packets stored in our database for station/object KC5AV. If no packets are shown the sender has not sent any weather packets the latest 10 day(s).
| Time | Temp. | Humidity | Pressure | Rain* | Wind** | Luminosity | Snow |
|---|---|---|---|---|---|---|---|
| 1777588422 | 16.11° C | 93% | 1013.6 hPa | 0 mm | - | 90 W/m² | - |
| 1777588117 | 16.11° C | 94% | 1013.8 hPa | 0 mm | - | 108 W/m² | - |
| 1777587813 | 16.11° C | 94% | 1014 hPa | 0 mm | - | 77 W/m² | - |
| 1777587513 | 16.11° C | 94% | 1014.1 hPa | 0 mm | - | 76 W/m² | - |
| 1777587209 | 15.56° C | 93% | 1013.7 hPa | 0 mm | - | 111 W/m² | - |
| 1777586905 | 15.56° C | 93% | 1013.9 hPa | 0 mm | - | 95 W/m² | - |
| 1777586601 | 16.11° C | 94% | 1014 hPa | 0 mm | - | 94 W/m² | - |
| 1777586297 | 16.11° C | 94% | 1014.1 hPa | 0.51 mm | - | 92 W/m² | - |
| 1777585994 | 16.11° C | 94% | 1014.1 hPa | 0.51 mm | - | 81 W/m² | - |
| 1777585690 | 16.11° C | 94% | 1013.9 hPa | 0 mm | - | 92 W/m² | - |
| 1777585389 | 16.11° C | 94% | 1013.6 hPa | 0 mm | - | 125 W/m² | - |
| 1777585085 | 16.11° C | 93% | 1014.1 hPa | 1.27 mm | - | 73 W/m² | - |
| 1777584781 | 16.11° C | 93% | 1014.1 hPa | 1.27 mm | - | 73 W/m² | - |
| 1777584479 | 15.56° C | 93% | 1014.1 hPa | 0.51 mm | - | 74 W/m² | - |
| 1777584176 | 15.56° C | 93% | 1013.6 hPa | 0 mm | - | 96 W/m² | - |
| 1777583875 | 15.56° C | 92% | 1013.8 hPa | 0 mm | - | 73 W/m² | - |
| 1777583571 | 16.11° C | 92% | 1014.2 hPa | 0 mm | - | 84 W/m² | - |
| 1777583270 | 16.11° C | 92% | 1014.4 hPa | 0 mm | - | 122 W/m² | - |
| 1777582970 | 16.11° C | 92% | 1014.2 hPa | 0.51 mm | - | 205 W/m² | - |
| 1777582668 | 16.11° C | 93% | 1014.2 hPa | 0.51 mm | - | 203 W/m² | - |
| 1777582363 | 16.11° C | 92% | 1014.8 hPa | 0 mm | - | 135 W/m² | - |
| 1777580346 | 16.67° C | 91% | 1015.4 hPa | 0.51 mm | - | 126 W/m² | - |
| 1777580043 | 16.67° C | 91% | 1015.4 hPa | 0.51 mm | - | 126 W/m² | - |
| 1777579740 | 16.67° C | 91% | 1015.4 hPa | 0.51 mm | - | 126 W/m² | - |
| 1777579437 | 16.67° C | 90% | 1015.6 hPa | 0 mm | - | 153 W/m² | - |
* Rain latest hour (hover to see other rain measurements)
** Current wind speed in m/s (hover to see current wind gust speed)